Latest Weather Observations for Friendly Beaches

IDT60801

Issued at 8:31 am EST Tuesday 17 September 2019 (issued every 10 minutes, with the page automatically refreshed every 10 minutes)

About weather observations | Map of weather stations | Latest weather observations for TAS | Other Formats
Station Details ID: 092114 Name: FRIENDLY BEACHES Lat: -42.00 Lon: 148.28 Height: 55.0 m
Data from the previous 72 hours. | See also: Recent months at Friendly Beaches
Date/Time
EST
Temp
°C
App
Temp
°C
Dew
Point
°C
Rel
Hum
%
Delta-T
°C
Wind Press
QNH
hPa
Press
MSL
hPa
Rain since
9am
mm
Dir  Spd
km/h
Gust
km/h
Spd
kts
Gust
kts
17/08:30am 8.8 5.4 -1.9 47 4.0 W 6 9 3 5 1027.3 1027.3 0.0
17/08:00am 7.1 3.6 -2.9 49 3.6 WNW 6 7 3 4 1027.1 1027.1 0.0
17/07:30am 5.7 2.0 -2.6 55 3.0 WNW 7 11 4 6 1026.7 1026.7 0.0
17/07:00am 3.8 -0.3 -3.2 60 2.4 WNW 9 11 5 6 1026.3 1026.3 0.0
17/06:30am 3.4 -0.4 -3.4 61 2.3 W 7 9 4 5 1025.9 1025.9 0.0
17/06:00am 3.1 -1.0 -3.2 63 2.1 WNW 9 13 5 7 1025.5 1025.5 0.0
17/05:30am 3.5 -0.6 -3.3 61 2.3 WNW 9 11 5 6 1025.4 1025.4 0.0
17/05:00am 3.3 -1.1 -2.8 64 2.1 W 11 15 6 8 1025.0 1025.0 0.0
17/04:30am 3.5 -1.0 -3.1 62 2.3 W 11 15 6 8 1024.8 1024.8 0.0
17/04:00am 3.0 -1.1 -2.9 65 2.0 W 9 13 5 7 1025.0 1025.0 0.0
17/03:30am 3.7 -0.4 -3.3 60 2.4 WNW 9 11 5 6 1024.9 1024.9 0.0
17/03:00am 3.9 -0.2 -2.7 62 2.3 WNW 9 13 5 7 1025.0 1025.0 0.0
17/02:30am 3.7 -0.6 -2.0 66 2.0 W 11 15 6 8 1024.9 1024.9 0.0
17/02:00am 3.5 -0.9 -2.4 65 2.1 W 11 13 6 7 1025.1 1025.1 0.0
17/01:30am 3.9 -0.1 -2.3 64 2.2 W 9 11 5 6 1025.1 1025.1 0.0
17/01:00am 4.0 -0.4 -2.6 62 2.3 W 11 15 6 8 1025.2 1025.2 0.0
17/12:30am 4.0 0.0 -2.4 63 2.3 W 9 15 5 8 1025.2 1025.2 0.0
17/12:00am 4.0 0.0 -2.4 63 2.3 W 9 13 5 7 1025.0 1025.0 0.0
 
Date/Time
EST
Temp
°C
App
Temp
°C
Dew
Point
°C
Rel
Hum
%
Delta-T
°C
Wind Press
QNH
hPa
Press
MSL
hPa
Rain since
9am
mm
Dir  Spd
km/h
Gust
km/h
Spd
kts
Gust
kts
16/11:30pm 3.9 0.3 -2.3 64 2.2 W 7 13 4 7 1024.7 1024.7 0.0
16/11:00pm 4.3 0.0 -1.7 65 2.2 WSW 11 17 6 9 1024.7 1024.7 0.0
16/10:30pm 4.0 0.0 -2.4 63 2.3 W 9 13 5 7 1024.5 1024.5 0.0
16/10:00pm 4.4 0.0 -2.2 62 2.3 W 11 15 6 8 1024.2 1024.2 0.0
16/09:30pm 5.1 1.1 -2.5 58 2.7 W 9 13 5 7 1023.9 1023.9 0.0
16/09:00pm 4.8 1.2 -1.8 62 2.4 W 7 13 4 7 1023.7 1023.7 0.0
16/08:30pm 5.6 2.1 -1.5 60 2.6 WSW 7 13 4 7 1023.3 1023.3 0.0
16/08:00pm 6.0 2.1 -1.6 58 2.8 W 9 13 5 7 1022.8 1022.8 0.0
16/07:30pm 6.3 2.4 -1.3 58 2.8 W 9 15 5 8 1022.4 1022.4 0.0
16/07:00pm 6.4 2.8 -2.0 55 3.1 WSW 7 11 4 6 1021.6 1021.6 0.0
16/06:30pm 6.8 3.2 -2.1 53 3.3 WSW 7 11 4 6 1020.9 1020.9 0.0
16/06:00pm 7.5 3.2 -1.7 52 3.4 SSW 11 22 6 12 1020.3 1020.3 0.0
16/05:30pm 8.0 4.1 -1.5 51 3.6 S 9 17 5 9 1019.6 1019.7 0.0
16/05:00pm 9.1 3.6 -2.2 45 4.3 SSW 17 28 9 15 1019.2 1019.3 0.0
16/04:30pm 9.8 5.2 -1.3 46 4.3 SW 13 28 7 15 1018.7 1018.8 0.0
16/04:00pm 9.2 3.9 -0.9 49 3.9 SSW 17 30 9 16 1018.1 1018.2 0.0
16/03:30pm 10.9 6.1 0.3 48 4.3 S 15 32 8 17 1017.6 1017.7 0.0
16/03:00pm 9.8 5.7 -0.1 50 4.0 SSW 11 26 6 14 1017.0 1017.1 0.0
16/02:30pm 11.7 7.1 1.4 49 4.4 S 15 28 8 15 1016.7 1016.8 0.0
16/02:00pm 11.5 5.4 0.3 46 4.6 S 22 33 12 18 1016.4 1016.5 0.0
16/01:30pm 11.8 5.3 -2.8 36 5.6 SSW 22 39 12 21 1015.8 1015.9 0.0
16/01:00pm 10.0 4.4 -2.6 41 4.8 SSW 17 35 9 19 1015.6 1015.7 0.0
16/12:30pm 11.9 5.8 -2.7 36 5.6 SW 20 44 11 24 1015.2 1015.3 0.0
16/12:06pm 10.9 3.2 -2.8 38 5.2 SSW 28 46 15 25 1015.0 1015.0 0.0
16/12:00pm 10.4 3.6 -1.9 42 4.8 SW 24 46 13 25 1015.0 1015.0 0.0
16/11:30am 10.5 3.2 -2.5 40 5.0 SSW 26 43 14 23 1014.6 1014.6 0.0
16/11:00am 11.4 5.0 -1.4 41 5.1 SW 22 43 12 23 1014.1 1014.1 0.0
16/10:30am 10.3 4.4 -0.5 47 4.3 WSW 20 35 11 19 1013.6 1013.6 0.0
16/10:00am 10.7 4.6 0.4 49 4.2 WSW 22 37 12 20 1013.3 1013.3 0.0
16/09:30am 8.9 3.9 1.3 59 3.1 SW 17 33 9 18 1013.1 1013.1 0.0
16/09:00am 10.3 5.4 1.9 56 3.5 SW 17 28 9 15 1012.6 1012.6 0.0
16/08:30am 9.2 4.4 2.8 64 2.7 SW 17 30 9 16 1011.8 1011.8 0.0
16/08:00am 8.3 2.8 1.9 64 2.7 WSW 20 33 11 18 1011.0 1011.0 0.0
16/07:30am 8.3 2.4 1.9 64 2.7 WSW 22 37 12 20 1010.2 1010.2 0.0
16/07:00am 7.9 1.2 1.5 64 2.6 WSW 26 43 14 23 1009.5 1009.5 0.0
16/06:30am 8.6 1.0 0.3 56 3.3 WSW 30 56 16 30 1008.1 1008.1 0.0
16/06:00am 8.9 1.2 -0.1 53 3.6 WSW 30 57 16 31 1006.9 1006.9 0.0
16/05:30am 9.3 1.5 -0.6 50 3.9 W 30 50 16 27 1005.6 1005.6 0.0
16/05:21am 9.4 2.1 -0.2 51 3.8 W 28 48 15 26 1005.2 1005.2 0.0
16/05:00am 9.2 3.8 1.4 58 3.2 W 19 32 10 17 1005.0 1005.0 0.0
16/04:30am 9.7 2.9 1.1 55 3.5 W 26 46 14 25 1004.1 1004.1 0.0
16/04:18am 9.7 2.5 0.9 54 3.6 W 28 48 15 26 1003.8 1003.8 0.0
16/04:00am 9.3 3.1 2.2 61 3.0 WNW 24 41 13 22 1003.4 1003.4 0.0
16/03:48am 9.4 2.5 2.3 61 3.0 WNW 28 50 15 27 1003.4 1003.4 0.0
16/03:30am 9.4 3.2 2.3 61 3.0 WNW 24 50 13 27 1003.3 1003.3 0.0
16/03:00am 9.5 3.3 2.1 60 3.1 WNW 24 48 13 26 1003.1 1003.1 0.0
16/02:50am 9.6 2.6 2.0 59 3.2 WNW 28 50 15 27 1003.1 1003.1 0.0
16/02:30am 9.6 2.9 1.5 57 3.4 WNW 26 48 14 26 1003.2 1003.2 0.0
16/02:00am 9.6 3.7 1.8 58 3.3 WNW 22 46 12 25 1003.2 1003.2 0.0
16/01:30am 9.2 4.6 1.4 58 3.2 WNW 15 28 8 15 1003.5 1003.5 0.0
16/01:00am 9.3 4.6 1.2 57 3.3 WNW 15 24 8 13 1003.9 1003.9 0.0
16/12:30am 8.3 5.3 0.8 59 3.0 WNW 6 13 3 7 1004.3 1004.3 0.0
16/12:00am 8.6 5.5 0.3 56 3.3 W 6 7 3 4 1004.7 1004.7 0.0
 
Date/Time
EST
Temp
°C
App
Temp
°C
Dew
Point
°C
Rel
Hum
%
Delta-T
°C
Wind Press
QNH
hPa
Press
MSL
hPa
Rain since
9am
mm
Dir  Spd
km/h
Gust
km/h
Spd
kts
Gust
kts
15/11:30pm 9.8 6.5 0.4 52 3.8 W 7 17 4 9 1004.8 1004.8 0.0
15/11:00pm 10.4 6.4 0.2 49 4.2 W 11 20 6 11 1005.1 1005.1 0.0
15/10:30pm 10.4 6.4 0.4 50 4.1 W 11 20 6 11 1005.4 1005.4 0.0
15/10:00pm 9.7 6.9 2.3 60 3.1 W 6 11 3 6 1005.4 1005.4 0.0
15/09:30pm 10.4 7.9 3.9 64 2.9 W 6 7 3 4 1005.9 1005.9 0.0
15/09:00pm 11.4 8.3 3.7 59 3.4 W 9 20 5 11 1006.2 1006.2 0.0
15/08:30pm 10.3 8.7 7.9 85 1.2 WSW 6 11 3 6 1006.6 1006.6 0.0
15/08:00pm 9.9 9.8 9.3 96 0.3 CALM 0 0 0 0 1006.8 1006.8 0.0
15/07:30pm 9.9 8.9 9.0 94 0.4 NNW 4 6 2 3 1006.8 1006.8 0.0
15/07:00pm 10.2 9.3 9.1 93 0.5 NE 4 6 2 3 1006.9 1006.9 0.0
15/06:30pm 10.7 10.3 9.8 94 0.5 N 2 6 1 3 1006.8 1006.8 0.0
15/06:00pm 11.2 9.5 9.8 91 0.7 ENE 9 11 5 6 1006.7 1006.7 0.0
15/05:30pm 12.3 11.3 10.2 87 1.1 ENE 6 11 3 6 1006.9 1006.9 0.0
15/05:00pm 12.9 11.8 10.8 87 1.1 E 7 9 4 5 1006.9 1006.9 0.0
15/04:30pm 13.5 12.1 10.9 84 1.4 E 9 13 5 7 1006.9 1006.9 0.0
15/04:00pm 14.2 12.8 10.8 80 1.8 SE 9 11 5 6 1007.1 1007.1 0.0
15/03:30pm 14.5 13.2 10.1 75 2.3 ESE 7 13 4 7 1007.3 1007.3 0.0
15/03:00pm 15.1 13.5 10.3 73 2.5 ESE 9 13 5 7 1007.4 1007.4 0.0
15/02:30pm 16.0 13.7 9.0 63 3.6 ESE 11 15 6 8 1007.5 1007.5 0.0
15/02:00pm 16.8 14.4 8.8 59 4.1 ESE 11 17 6 9 1007.8 1007.8 0.0
15/01:30pm 17.3 14.1 8.4 56 4.6 ESE 15 19 8 10 1007.7 1007.7 0.0
15/01:00pm 17.4 15.6 12.1 71 2.9 ESE 13 17 7 9 1008.1 1008.1 0.0
15/12:30pm 17.1 15.5 10.2 64 3.7 E 9 15 5 8 1008.5 1008.5 0.0
15/12:00pm 17.6 15.9 10.0 61 4.0 ENE 9 15 5 8 1008.9 1008.9 0.0
15/11:30am 18.0 16.5 10.4 61 4.1 E 9 13 5 7 1009.0 1009.0 0.0
15/11:00am 16.5 14.9 10.1 66 3.4 ENE 9 15 5 8 1009.2 1009.2 0.0
15/10:30am 16.7 15.7 11.0 69 3.1 ENE 7 13 4 7 1009.2 1009.2 0.0
15/10:00am 18.6 16.9 9.9 57 4.6 ENE 9 13 5 7 1009.3 1009.3 0.0
15/09:30am 18.1 16.4 10.0 59 4.3 NE 9 13 5 7 1009.5 1009.5 0.0
15/09:00am 17.0 15.7 10.1 64 3.7 NE 7 13 4 7 1009.6 1009.6 0.0
15/08:30am 16.4 15.1 9.3 63 3.7 E 6 9 3 5 1009.3 1009.3 0.0
15/08:00am 15.5 14.6 9.2 66 3.3 SE 4 9 2 5 1009.3 1009.3 0.0
15/07:30am 14.4 13.2 9.4 72 2.6 SSE 6 7 3 4 1009.1 1009.1 0.0
15/07:00am 13.6 12.0 8.7 72 2.5 NNW 7 11 4 6 1009.0 1009.0 0.0
15/06:30am 13.4 11.8 8.7 73 2.4 NNW 7 13 4 7 1008.8 1008.8 0.0
15/06:00am 13.3 10.8 8.4 72 2.5 NNW 11 19 6 10 1008.4 1008.4 0.0
15/05:30am 13.6 10.0 8.4 71 2.6 NW 17 28 9 15 1008.4 1008.4 0.0
15/05:00am 13.7 10.0 8.1 69 2.8 NW 17 28 9 15 1007.9 1007.9 0.0
15/04:30am 13.7 10.7 7.7 67 3.0 NW 13 22 7 12 1007.7 1007.7 0.0
15/04:00am 13.6 9.8 7.4 66 3.0 NW 17 28 9 15 1008.0 1008.0 0.0
15/03:30am 13.5 9.9 6.8 64 3.2 NW 15 24 8 13 1007.9 1007.9 0.0
15/03:00am 13.8 10.1 6.2 60 3.6 NW 15 26 8 14 1008.2 1008.2 0.0
15/02:30am 13.8 9.6 5.7 58 3.8 WNW 17 28 9 15 1008.3 1008.3 0.0
15/02:00am 14.1 9.3 5.5 56 4.1 NW 20 32 11 17 1008.7 1008.7 0.0
15/01:30am 14.1 8.9 5.7 57 4.0 NW 22 37 12 20 1009.0 1009.0 0.0
15/01:00am 14.4 9.2 5.5 55 4.2 NW 22 43 12 23 1009.5 1009.5 0.0
15/12:30am 14.5 8.8 4.8 52 4.5 NW 24 39 13 21 1009.8 1009.8 0.0
15/12:00am 14.4 8.9 2.0 43 5.5 NW 20 33 11 18 1010.5 1010.5 0.0
 
Date/Time
EST
Temp
°C
App
Temp
°C
Dew
Point
°C
Rel
Hum
%
Delta-T
°C
Wind Press
QNH
hPa
Press
MSL
hPa
Rain since
9am
mm
Dir  Spd
km/h
Gust
km/h
Spd
kts
Gust
kts
14/11:30pm 14.4 8.2 -0.5 36 6.2 NW 22 39 12 21 1010.7 1010.7 0.0
14/11:00pm 14.9 9.8 -1.6 32 6.7 NW 15 35 8 19 1011.3 1011.3 0.0
14/10:30pm 14.9 9.6 -0.8 34 6.5 WNW 17 33 9 18 1011.6 1011.6 0.0
14/10:00pm 15.2 9.5 0.6 37 6.3 WNW 20 41 11 22 1012.4 1012.4 0.0
14/09:30pm 15.5 11.2 0.9 37 6.3 WNW 13 24 7 13 1012.9 1012.9 0.0
14/09:00pm 15.2 11.8 1.7 40 5.9 W 9 19 5 10 1013.2 1013.2 0.0
14/08:30pm 16.1 11.1 1.4 37 6.5 WNW 17 33 9 18 1013.1 1013.1 0.0
14/08:00pm 15.7 11.2 2.2 40 6.0 NW 15 32 8 17 1013.0 1013.0 0.0
14/07:30pm 15.6 11.7 3.4 44 5.6 NW 13 26 7 14 1013.9 1013.9 0.0
14/07:00pm 14.9 11.9 4.3 49 4.9 NW 9 24 5 13 1014.1 1014.1 0.0
14/06:30pm 13.8 10.9 4.9 55 4.1 NW 9 13 5 7 1014.3 1014.3 0.0
14/06:00pm 12.5 10.3 6.1 65 3.0 NW 7 9 4 5 1014.4 1014.4 0.0
14/05:30pm 12.3 9.6 7.4 72 2.4 NNE 11 15 6 8 1014.8 1014.8 0.0
14/05:00pm 13.6 11.4 8.0 69 2.8 NNE 9 13 5 7 1015.1 1015.2 0.0
14/04:30pm 14.5 11.6 8.2 66 3.2 NNE 13 19 7 10 1015.1 1015.2 0.0
14/04:00pm 14.9 11.6 8.2 64 3.4 NNE 15 22 8 12 1015.3 1015.4 0.0
14/03:30pm 15.9 12.5 7.7 58 4.1 NE 15 24 8 13 1015.6 1015.7 0.0
14/03:00pm 15.9 12.4 7.1 56 4.4 NNE 15 24 8 13 1016.1 1016.2 0.0
14/02:30pm 16.0 11.1 5.3 49 5.1 NNE 20 28 11 15 1016.3 1016.4 0.0
14/02:00pm 16.8 12.2 6.3 50 5.1 NNE 20 32 11 17 1016.5 1016.6 0.0
14/01:30pm 17.6 13.7 5.2 44 6.0 NNE 15 24 8 13 1016.9 1017.0 0.0
14/01:00pm 18.0 13.8 5.6 44 6.0 NNE 17 28 9 15 1017.4 1017.5 0.0
14/12:30pm 16.2 12.1 6.1 51 4.9 NE 17 26 9 14 1017.8 1017.9 0.0
14/12:00pm 16.3 12.3 6.7 53 4.7 NE 17 28 9 15 1018.2 1018.3 0.0
14/11:30am 16.2 12.5 6.3 52 4.8 NE 15 22 8 12 1018.5 1018.6 0.0
14/11:00am 15.9 13.1 3.0 42 5.9 W 7 13 4 7 1018.7 1018.8 0.0
14/10:30am 15.2 12.1 3.7 46 5.3 WSW 9 17 5 9 1019.0 1019.1 0.0
14/10:00am 14.3 11.2 3.7 49 4.8 SW 9 15 5 8 1019.3 1019.4 0.0
14/09:30am 13.4 9.6 3.8 52 4.4 WSW 13 28 7 15 1019.5 1019.6 0.0
14/09:00am 12.2 8.8 3.9 57 3.7 W 11 19 6 10 1019.7 1019.8 0.0

Other formats

Comma delimited format used in spreadsheet applications
http://www.bom.gov.au/fwo/IDT60801/IDT60801.94987.axf

JavaScript Object Notation format (JSON) in row-major order
http://www.bom.gov.au/fwo/IDT60801/IDT60801.94987.json

Data quality

Most of these data are generated automatically and are frequently updated. Quality checks on data are not normally performed. It is possible for incorrect values to appear. Refer to information at About Latest Weather Observations and please check the disclaimer before using these data.